Tiempo atmosférico en la estación meteorológica de Fuentesauco, Zamora (811 m.)



Fecha
DESCASC
Temp. máxima en grados centígrados (hora)
DESCASC
Temp. mínima en grados centígrados (hora)
DESCASC
Temp. media en grados centígrados
DESCASC
Racha de viento máxima en m/sg (hora)
DESCASC
Velocidad máxima media en intervalos de 10 minutos(hora)
DESCASC
Precipitaciones diarias en mm
DESCASC
Precipitaciones de 00:00 a 06:00 en mm
DESCASC
Precipitaciones de 06:00 a 12:00 en mm
DESCASC
Precipitaciones de 12:00 a 18:00 en mm
DESCASC
Precipitaciones de 18:00 a 24:00 en mm
DESCASC
19-09-2019 26.8 (17:10) 12.1 (07:40) 19.4 6.11 (14:20) 3.33 (17:30) 0 0 0 0 0
18-09-2019 25.4 (19:10) 11.4 (08:10) 18.4 7.78 (00:50) 4.44 (06:30) 0 0 0 0 0
17-09-2019 26.4 (17:10) 13.2 (00:00) 19.8 15.83 (21:40) 11.11 (21:10) 1.8 0 0 0 1.8
16-09-2019 24.3 (16:10) 11.8 (00:00) 18 8.89 (17:10) 5.83 (17:10) 0.8 0 0 0.8 0
15-09-2019 22.4 (16:30) 14.1 (00:00) 18.3 8.61 (16:40) 6.11 (17:00) 4.8 0.8 4 0 0
14-09-2019 24 (14:30) 13.4 (00:00) 18.7 12.5 (18:50) 8.61 (18:50) 0.6 0 0.6 0 0
13-09-2019 27.3 (15:00) 12.3 (00:00) 19.8 17.5 (17:20) 11.94 (17:00) 0 0 0 0 0
12-09-2019 27.7 (18:10) 8.9 (00:00) 18.3 10.56 (20:10) 7.78 (20:10) 0 0 0 0 0
11-09-2019 21.6 (17:20) 9.3 (00:00) 15.5 14.17 (11:50) 10.28 (12:10) 0 0 0 0 0
10-09-2019 21.3 (18:10) 8.7 (08:20) 15 14.17 (14:40) 9.72 (18:30) 0 0 0 0 0
09-09-2019 26.1 (15:50) 9.4 (07:50) 17.8 12.22 (18:40) 8.06 (18:20) 0 0 0 0 0
08-09-2019 26.4 (18:40) 8.9 (00:00) 17.6 8.06 (10:40) 5.56 (00:30) 0 0 0 0 0
07-09-2019 24.3 (18:20) 7.5 (00:00) 15.9 9.17 (14:00) 6.11 (10:30) 0 0 0 0 0
06-09-2019 22.3 (17:00) 8.3 (00:00) 15.3 13.06 (10:40) 7.78 (10:30) 0 0 0 0 0
05-09-2019 22.8 (16:50) 11.8 (00:00) 17.3 15.83 (14:40) 9.44 (09:50) 0 0 0 0 0
04-09-2019 30.7 (17:30) 12.3 (00:00) 21.5 11.94 (22:40) 8.33 (22:30) 0 0 0 0 0
03-09-2019 29.9 (18:00) 9.8 (00:00) 19.8 7.22 (19:10) 5.28 (00:30) 0 0 0 0 0
02-09-2019 26.8 (17:50) 12.2 (00:00) 19.5 11.67 (00:10) 8.61 (00:10) 0 0 0 0 0
01-09-2019 29.3 (18:00) 15.2 (00:00) 22.2 13.33 (22:40) 8.89 (22:40) 0 0 0 0 0
31-08-2019 32.7 (17:30) 17.5 (00:00) 25.1 10.28 (16:30) 5.83 (18:00) 0 0 0 0 0
30-08-2019 33.2 (17:30) 16.7 (00:00) 25 12.78 (18:50) 9.17 (19:50) 0 0 0 0 0
29-08-2019 32.5 (17:00) 16.4 (00:00) 24.4 9.17 (17:10) 5.56 (16:30) 0 0 0 0 0
28-08-2019 30.2 (18:20) 15.8 (00:00) 23 10.56 (14:50) 3.89 (15:00) 0 0 0 0 0
27-08-2019 26.9 (18:40) 13 (00:00) 19.9 7.78 (16:30) 4.17 (16:00) 0 0 0 0 0
26-08-2019 24.3 (18:10) 13.6 (00:00) 18.9 11.94 (20:10) 6.94 (20:20) 19.4 5.2 14.2 0 0
25-08-2019 32 (16:20) 16.8 (00:00) 24.4 23.89 (17:20) 9.44 (17:00) 30.8 0 0 28.4 2.4
24-08-2019 33.9 (18:20) 16.5 (00:00) 25.2 7.78 (16:30) 4.44 (15:50) 0 0 0 0 0
23-08-2019 32.6 (18:00) 12.3 (00:00) 22.4 6.67 (18:10) 3.61 (18:10) 0 0 0 0 0
22-08-2019 30.4 (18:50) 12.2 (00:00) 21.3 8.33 (14:40) 5 (00:20) 0 0 0 0 0
21-08-2019 29.7 (18:30) 12.3 (00:00) 21 7.5 (00:10) 5.28 (00:10) 0 0 0 0 0

Gráficas

Temp. máximas Temp. mínimas Temp. medias Precipitaciones Rachas de viento máximas Velocidades máximas media en intervalos de 10 minutos

Datos horarios

Fecha y hora oficial Temperatura (ºC) Velocidad del viento (km/h) Dirección del viento Racha (km/h) Dirección de racha Precipitación (mm) Presión (hPa) Tendencia (hPa) Humedad (%)
2019-09-19 23:00:00 18.8 0 Calma 4 Sudoeste 0 -- -- 55
2019-09-19 22:00:00 19.6 4 Sudoeste 8 Este 0 -- -- 52
2019-09-19 21:00:00 21.5 7 Este 9 Nordeste 0 -- -- 44
2019-09-19 20:00:00 24.6 7 Nordeste 15 Nordeste 0 -- -- 37
2019-09-19 19:00:00 26 9 Nordeste 18 Nordeste 0 -- -- 36
2019-09-19 18:00:00 26.3 7 Norte 21 Nordeste 0 -- -- 36
2019-09-19 17:00:00 26.4 7 Norte 16 Norte 0 -- -- 38
2019-09-19 16:00:00 25.3 6 Nordeste 19 Nordeste 0 -- -- 42
2019-09-19 15:00:00 24.6 6 Nordeste 22 Nordeste 0 -- -- 46
2019-09-19 14:00:00 23.4 9 Nordeste 18 Este 0 -- -- 54
2019-09-19 13:00:00 21.8 9 Nordeste 21 Nordeste 0 -- -- 62
2019-09-19 12:00:00 19.8 7 Nordeste 14 Nordeste 0 -- -- 71
2019-09-19 11:00:00 17.6 9 Nordeste 13 Norte 0 -- -- 81
2019-09-19 10:00:00 16.1 7 Norte 10 Norte 0 -- -- 87
2019-09-19 09:00:00 12.7 0 Calma 2 Sudoeste 0 -- -- 90
2019-09-19 08:00:00 12.1 0 Calma 4 Norte 0 -- -- 89
2019-09-19 07:00:00 12.5 2 Norte 4 Norte 0 -- -- 88
2019-09-19 06:00:00 12.9 2 Sur 2 Sur 0 -- -- 86
2019-09-19 05:00:00 13.3 0 Calma 3 Sudoeste 0 -- -- 83
2019-09-19 04:00:00 13.9 0 Calma 7 Nordeste 0 -- -- 81
2019-09-19 03:00:00 14.9 6 Nordeste 8 Nordeste 0 -- -- 78
2019-09-19 02:00:00 15.4 2 Sudoeste 4 Sudoeste 0 -- -- 76
2019-09-19 01:00:00 15.7 0 Calma 4 Sudoeste 0 -- -- 74
2019-09-19 00:00:00 17.1 3 Nordeste 11 Nordeste 0 -- -- 68
2019-09-18 23:00:00 17.4 2 Sudoeste 4 Sudoeste 0 -- -- 69
2019-09-18 22:00:00 19.2 4 Este 11 Nordeste 0 -- -- 63
2019-09-18 21:00:00 20.5 9 Este 10 Este 0 -- -- 57
2019-09-18 20:00:00 23.4 8 Nordeste 13 Nordeste 0 -- -- 47
2019-09-18 19:00:00 25.3 3 Noroeste 15 Norte 0 -- -- 42
2019-09-18 18:00:00 25.1 3 Nordeste 15 Noroeste 0 -- -- 42
2019-09-18 17:00:00 24.1 5 Nordeste 20 Nordeste 0 -- -- 46
2019-09-18 16:00:00 23.2 10 Nordeste 19 Nordeste 0 -- -- 49
2019-09-18 15:00:00 22.3 7 Norte 16 Norte 0 -- -- 52
2019-09-18 14:00:00 20.7 5 Nordeste 14 Sudeste 0 -- -- 65
2019-09-18 13:00:00 19.2 9 Este 17 Este 0 -- -- 73
2019-09-18 12:00:00 17.3 11 Nordeste 18 Nordeste 0 -- -- 81
2019-09-18 11:00:00 17 5 Este 11 Sudeste 0 -- -- 82
2019-09-18 10:00:00 14.5 4 Este 8 Este 0 -- -- 93
2019-09-18 09:00:00 11.7 2 Sur 4 Sudoeste 0 -- -- 95
2019-09-18 08:00:00 11.6 0 Calma 5 Este 0 -- -- 92
2019-09-18 07:00:00 12.7 4 Este 18 Nordeste 0 -- -- 94
2019-09-18 06:00:00 12.3 3 Sur 9 Este 0 -- -- 94
2019-09-18 05:00:00 12.9 9 Nordeste 14 Nordeste 0 -- -- 94
2019-09-18 04:00:00 13.6 13 Nordeste 19 Este 0 -- -- 93
2019-09-18 03:00:00 14.3 12 Nordeste 14 Nordeste 0 -- -- 89
2019-09-18 02:00:00 15 5 Oeste 21 Sudeste 0 -- -- 84
2019-09-18 01:00:00 15.8 15 Sudeste 28 Sudeste 0 -- -- 80
2019-09-18 00:00:00 15 15 Norte 18 Norte 0.6 -- -- 88
2019-09-17 23:00:00 15.5 8 Este 40 Sudeste 1.2 -- -- 82
2019-09-17 22:00:00 16 33 Sudeste 57 Sudeste 0 -- -- 77
2019-09-17 21:00:00 17.8 31 Sur 54 Sur 0 -- -- 69
2019-09-15 18:00:00 -- -- -- -- -- -- -- -- --
2019-09-15 17:00:00 -- -- -- -- -- -- -- -- --
2019-09-15 16:00:00 -- -- -- -- -- -- -- -- --
2019-09-15 15:00:00 -- -- -- -- -- -- -- -- --
2019-09-15 14:00:00 20.5 13 Este 23 Este 0 -- -- 68
2019-09-15 13:00:00 19.5 12 Nordeste 22 Nordeste 0 -- -- 76
2019-09-15 12:00:00 17.5 17 Nordeste 24 Nordeste 0.2 -- -- 85
2019-09-15 11:00:00 15.8 13 Nordeste 21 Nordeste 0 -- -- 90
2019-09-15 10:00:00 15.6 6 Norte 12 Norte 0 -- -- 92
2019-09-15 09:00:00 14.8 8 Norte 21 Nordeste 0 -- -- 93
2019-09-15 08:00:00 14.9 4 Oeste 13 Sudeste 3.8 -- -- 91
2019-09-15 07:00:00 15 4 Nordeste 14 Norte 0 -- -- 90
2019-09-15 06:00:00 15 4 Norte 12 Norte 0 -- -- 89
2019-09-15 05:00:00 14.5 5 Noroeste 10 Norte 0 -- -- 92
2019-09-15 04:00:00 14.3 8 Norte 12 Nordeste 0 -- -- 91
2019-09-15 03:00:00 15 4 Nordeste 8 Norte 0 -- -- 87
2019-09-15 02:00:00 15.6 4 Norte 14 Sudeste 0 -- -- 84
2019-09-15 01:00:00 15.6 10 Sudeste 28 Sudeste 0.8 -- -- 85
2019-09-15 00:00:00 16.8 13 Este 26 Este 0 -- -- 75
2019-09-14 23:00:00 17.9 13 Este 21 Este 0 -- -- 69
2019-09-14 22:00:00 18.2 4 Este 21 Este 0 -- -- 62
2019-09-14 21:00:00 19.2 10 Este 32 Este 0 -- -- 58
2019-09-14 20:00:00 20.2 20 Este 40 Sudeste 0 -- -- 55
2019-09-14 19:00:00 21.9 29 Sudeste 45 Sudeste 0 -- -- 48
2019-09-14 18:00:00 21.7 25 Sudeste 40 Sudeste 0 -- -- 46
2019-09-14 17:00:00 21.9 19 Sudeste 35 Sur 0 -- -- 48
2019-09-14 16:00:00 22.5 21 Sudeste 40 Sudeste 0 -- -- 47
2019-09-14 15:00:00 23.7 16 Este 36 Este 0 -- -- 42
2019-09-14 14:00:00 23.5 21 Este 36 Nordeste 0 -- -- 46
2019-09-14 13:00:00 22.5 23 Este 35 Este 0 -- -- 51
2019-09-14 12:00:00 20.3 17 Nordeste 27 Nordeste 0 -- -- 63
2019-09-14 11:00:00 17.6 22 Nordeste 30 Nordeste 0 -- -- 80
2019-09-14 10:00:00 16.1 12 Nordeste 17 Este 0 -- -- 87
2019-09-14 09:00:00 14.7 12 Nordeste 15 Nordeste 0 -- -- 89
2019-09-14 08:00:00 13.9 6 Nordeste 12 Norte 0.2 -- -- 89
2019-09-14 07:00:00 14.1 12 Nordeste 16 Nordeste 0.4 -- -- 84
2019-09-14 06:00:00 -- -- -- -- -- -- -- -- --
2019-09-14 05:00:00 -- -- -- -- -- -- -- -- --
2019-09-14 04:00:00 -- -- -- -- -- -- -- -- --
2019-09-14 03:00:00 -- -- -- -- -- -- -- -- --
2019-09-14 02:00:00 13.9 6 Nordeste 15 Nordeste 0 -- -- 78
2019-09-14 01:00:00 14.6 12 Nordeste 15 Nordeste 0 -- -- 77
2019-09-14 00:00:00 15.7 9 Este 21 Este 0 -- -- 74
2019-09-13 23:00:00 16.3 14 Nordeste 20 Nordeste 0 -- -- 70
2019-09-13 22:00:00 16.6 13 Nordeste 24 Este 0 -- -- 68
2019-09-13 21:00:00 17.5 16 Este 31 Este 0 -- -- 65
2019-09-13 20:00:00 17.8 25 Este 40 Este 0 -- -- 63
2019-09-13 19:00:00 18.4 22 Este 50 Este 0 -- -- 60
2019-09-13 18:00:00 21.3 33 Este 63 Este 0 -- -- 44
2019-09-13 17:00:00 23.2 43 Este 61 Este 0 -- -- 35
2019-09-13 16:00:00 25.6 35 Este 61 Nordeste 0 -- -- 30
2019-09-13 15:00:00 27.3 31 Este 51 Nordeste 0 -- -- 27
2019-09-13 14:00:00 26 34 Nordeste 49 Este 0 -- -- 28
2019-09-13 13:00:00 25.3 29 Este 41 Este 0 -- -- 34
2019-09-13 12:00:00 23.5 28 Nordeste 42 Nordeste 0 -- -- 40
2019-09-13 11:00:00 20.3 24 Nordeste 38 Nordeste 0 -- -- 48
2019-09-13 10:00:00 17.1 10 Nordeste 15 Nordeste 0 -- -- 59
2019-09-13 09:00:00 14.2 8 Norte 10 Norte 0 -- -- 69
2019-09-13 08:00:00 13.1 4 Norte 15 Norte 0 -- -- 69
2019-09-13 07:00:00 12.4 8 Norte 10 Norte 0 -- -- 70
2019-09-13 06:00:00 13 0 Calma 6 Norte 0 -- -- 65
2019-09-13 05:00:00 14.2 4 Este 7 Este 0 -- -- 63
2019-09-13 04:00:00 14.5 0 Calma 6 Este 0 -- -- 58
2019-09-13 03:00:00 15.3 3 Sudeste 8 Este 0 -- -- 57
2019-09-13 02:00:00 17.2 8 Este 11 Este 0 -- -- 53
2019-09-13 01:00:00 17.8 8 Nordeste 17 Nordeste 0 -- -- 49
2019-09-13 00:00:00 20 11 Nordeste 18 Nordeste 0 -- -- 43
2019-09-12 23:00:00 21.9 14 Este 30 Sudeste 0 -- -- 39
2019-09-12 22:00:00 22.5 14 Nordeste 25 Nordeste 0 -- -- 37
2019-09-12 21:00:00 24.5 18 Nordeste 38 Nordeste 0 -- -- 33
2019-09-12 20:00:00 26.9 26 Nordeste 37 Nordeste 0 -- -- 31
2019-09-12 19:00:00 27.5 21 Nordeste 34 Nordeste 0 -- -- 29
2019-09-12 18:00:00 27.6 17 Nordeste 32 Este 0 -- -- 30
2019-09-12 17:00:00 27 15 Nordeste 29 Nordeste 0 -- -- 32
2019-09-12 16:00:00 25.8 15 Nordeste 32 Nordeste 0 -- -- 33
2019-09-12 15:00:00 24.5 17 Nordeste 31 Nordeste 0 -- -- 37
2019-09-12 14:00:00 22.1 14 Nordeste 25 Nordeste 0 -- -- 43
2019-09-12 13:00:00 20.1 14 Norte 24 Norte 0 -- -- 49
2019-09-12 12:00:00 17 14 Norte 21 Norte 0 -- -- 59
2019-09-12 11:00:00 14.4 14 Nordeste 20 Nordeste 0 -- -- 68
2019-09-12 10:00:00 12.6 13 Nordeste 17 Norte 0 -- -- 76
2019-09-12 09:00:00 10.4 9 Norte 15 Norte 0 -- -- 83
2019-09-12 08:00:00 9 9 Nordeste 14 Norte 0 -- -- 86
2019-09-12 07:00:00 9.3 9 Norte 13 Norte 0 -- -- 86
2019-09-12 06:00:00 9.7 12 Norte 14 Norte 0 -- -- 83
2019-09-12 05:00:00 10.2 11 Norte 13 Norte 0 -- -- 81
2019-09-12 04:00:00 10.5 7 Nordeste 13 Norte 0 -- -- 79
2019-09-12 03:00:00 11.3 10 Nordeste 17 Nordeste 0 -- -- 75
2019-09-12 02:00:00 12.6 12 Nordeste 20 Nordeste 0 -- -- 70
2019-09-12 01:00:00 13.4 7 Nordeste 21 Nordeste 0 -- -- 66
2019-09-12 00:00:00 14.5 9 Nordeste 27 Nordeste 0 -- -- 63
2019-09-11 23:00:00 15.3 14 Nordeste 31 Nordeste 0 -- -- 59
2019-09-11 22:00:00 16.3 21 Nordeste 35 Nordeste 0 -- -- 54
2019-09-11 21:00:00 17.8 23 Nordeste 38 Nordeste 0 -- -- 48
2019-09-11 20:00:00 19.7 27 Nordeste 41 Nordeste 0 -- -- 44
2019-09-11 19:00:00 21 29 Nordeste 49 Nordeste 0 -- -- 40
2019-09-11 18:00:00 21.6 28 Nordeste 40 Nordeste 0 -- -- 39
2019-09-11 17:00:00 21.4 29 Nordeste 50 Nordeste 0 -- -- 40
2019-09-11 16:00:00 21.2 30 Nordeste 46 Nordeste 0 -- -- 40
2019-09-11 15:00:00 20.4 33 Nordeste 46 Nordeste 0 -- -- 43
2019-09-11 14:00:00 19.3 31 Nordeste 48 Nordeste 0 -- -- 46
2019-09-11 13:00:00 17.7 32 Nordeste 49 Nordeste 0 -- -- 50
2019-09-11 12:00:00 17 37 Nordeste 51 Nordeste 0 -- -- 51
2019-09-11 11:00:00 15.3 27 Nordeste 39 Este 0 -- -- 55
2019-09-11 10:00:00 13.5 20 Nordeste 28 Nordeste 0 -- -- 62
2019-09-11 09:00:00 11.1 16 Nordeste 19 Nordeste 0 -- -- 71
2019-09-11 08:00:00 9.3 8 Nordeste 16 Nordeste 0 -- -- 77
2019-09-11 07:00:00 10.2 12 Nordeste 19 Nordeste 0 -- -- 74
2019-09-11 06:00:00 10.3 9 Nordeste 12 Nordeste 0 -- -- 74
2019-09-11 05:00:00 11.7 10 Nordeste 22 Nordeste 0 -- -- 70
2019-09-11 04:00:00 11.7 10 Nordeste 14 Nordeste 0 -- -- 71
2019-09-11 03:00:00 12.7 6 Nordeste 19 Este 0 -- -- 68
2019-09-11 02:00:00 12.9 4 Nordeste 12 Norte 0 -- -- 60
2019-09-11 01:00:00 13 9 Nordeste 17 Norte 0 -- -- 59
2019-09-11 00:00:00 13.9 13 Nordeste 29 Norte 0 -- -- 57
2019-09-10 23:00:00 14.5 16 Norte 30 Norte 0 -- -- 54
2019-09-10 22:00:00 14.9 22 Norte 41 Norte 0 -- -- 51
2019-09-10 21:00:00 16.3 27 Norte 41 Noroeste 0 -- -- 46
2019-09-10 20:00:00 18.3 27 Norte 46 Norte 0 -- -- 40
2019-09-10 19:00:00 19.9 31 Norte 48 Norte 0 -- -- 35
2019-09-10 18:00:00 21.2 30 Norte 47 Norte 0 -- -- 33
2019-09-10 17:00:00 19.6 30 Norte 45 Noroeste 0 -- -- 35
2019-09-10 16:00:00 19.9 24 Norte 45 Norte 0 -- -- 33
2019-09-10 15:00:00 19.6 27 Norte 51 Norte 0 -- -- 33
2019-09-10 14:00:00 17.8 25 Norte 44 Norte 0 -- -- 37
2019-09-10 13:00:00 16.6 27 Norte 46 Norte 0 -- -- 39
2019-09-10 12:00:00 15.4 24 Norte 37 Noroeste 0 -- -- 44
2019-09-10 11:00:00 13.6 22 Norte 32 Norte 0 -- -- 50
2019-09-10 10:00:00 12 24 Norte 35 Norte 0 -- -- 56
2019-09-10 09:00:00 10.3 11 Norte 20 Norte 0 -- -- 61
2019-09-10 08:00:00 8.9 9 Norte 23 Norte 0 -- -- 67
2019-09-10 07:00:00 10.6 17 Noroeste 28 Noroeste 0 -- -- 63
2019-09-10 06:00:00 11.7 18 Norte 24 Norte 0 -- -- 64
2019-09-10 05:00:00 11.3 9 Norte 18 Norte 0 -- -- 72
2019-09-10 04:00:00 12.2 7 Noroeste 22 Noroeste 0 -- -- 67
2019-09-10 03:00:00 13.1 14 Noroeste 21 Noroeste 0 -- -- 63
2019-09-10 02:00:00 14.1 13 Noroeste 23 Oeste 0 -- -- 59
2019-09-10 01:00:00 15.3 17 Noroeste 32 Noroeste 0 -- -- 54
2019-09-10 00:00:00 16.9 22 Noroeste 35 Noroeste 0 -- -- 48
2019-09-09 23:00:00 18.5 20 Noroeste 36 Noroeste 0 -- -- 45
2019-09-09 22:00:00 19.6 17 Noroeste 29 Oeste 0 -- -- 38
2019-09-09 21:00:00 21 19 Noroeste 35 Oeste 0 -- -- 26
2019-09-09 20:00:00 23.1 22 Noroeste 37 Noroeste 0 -- -- 26
2019-09-09 19:00:00 24.1 24 Oeste 44 Noroeste 0 -- -- 25
2019-09-09 18:00:00 24.5 23 Oeste 42 Oeste 0 -- -- 26
2019-09-09 17:00:00 24.8 27 Oeste 40 Sudoeste 0 -- -- 23
2019-09-09 16:00:00 25.4 23 Oeste 38 Sudoeste 0 -- -- 24
2019-09-09 15:00:00 25.3 23 Oeste 36 Oeste 0 -- -- 26
2019-09-09 14:00:00 24.8 22 Oeste 33 Oeste 0 -- -- 28
2019-09-09 13:00:00 23.5 13 Noroeste 23 Oeste 0 -- -- 37
2019-09-09 12:00:00 22 14 Noroeste 23 Noroeste 0 -- -- 39
2019-09-09 11:00:00 17.8 3 Oeste 10 Sudoeste 0 -- -- 49
2019-09-09 10:00:00 14.6 6 Noroeste 11 Noroeste 0 -- -- 58
2019-09-09 09:00:00 11.9 3 Noroeste 10 Norte 0 -- -- 64
2019-09-09 08:00:00 9.4 2 Sudoeste 4 Sudoeste 0 -- -- 67
2019-09-09 07:00:00 10.2 0 Calma 3 Sudoeste 0 -- -- 66
2019-09-09 06:00:00 11.3 0 Calma 8 Norte 0 -- -- 62
2019-09-09 05:00:00 12.2 6 Norte 11 Norte 0 -- -- 59
2019-09-09 04:00:00 13 2 Este 6 Sur 0 -- -- 55
2019-09-09 03:00:00 15.2 0 Calma 16 Sudeste 0 -- -- 51
2019-09-09 02:00:00 16.5 12 Sudeste 17 Sudeste 0 -- -- 48
2019-09-09 01:00:00 16.5 2 Nordeste 19 Sudeste 0 -- -- 45
2019-09-09 00:00:00 17.7 9 Este 13 Este 0 -- -- 39
2019-09-08 23:00:00 16.8 0 Calma 4 Sudoeste 0 -- -- 36
2019-09-08 22:00:00 19.6 0 Calma 8 Noroeste 0 -- -- 31
2019-09-08 21:00:00 22.6 3 Noroeste 13 Noroeste 0 -- -- 28
2019-09-08 20:00:00 25.8 10 Noroeste 17 Este 0 -- -- 25
2019-09-08 19:00:00 25.7 13 Nordeste 19 Nordeste 0 -- -- 28
2019-09-08 18:00:00 25.7 8 Nordeste 17 Norte 0 -- -- 27
2019-09-08 17:00:00 25.6 10 Norte 26 Nordeste 0 -- -- 28
2019-09-08 16:00:00 24.6 6 Norte 19 Norte 0 -- -- 30
2019-09-08 15:00:00 23.9 12 Norte 24 Nordeste 0 -- -- 33
2019-09-08 14:00:00 21.9 13 Nordeste 25 Norte 0 -- -- 39
2019-09-08 13:00:00 20.1 13 Nordeste 27 Nordeste 0 -- -- 46
2019-09-08 12:00:00 17.3 16 Nordeste 25 Este 0 -- -- 55
2019-09-08 11:00:00 14.7 16 Nordeste 29 Nordeste 0 -- -- 64
2019-09-08 10:00:00 12.6 13 Nordeste 18 Norte 0 -- -- 72
2019-09-08 09:00:00 10.3 8 Norte 13 Norte 0 -- -- 81
2019-09-08 08:00:00 8.9 12 Norte 16 Norte 0 -- -- 85
2019-09-08 07:00:00 9.3 11 Norte 14 Norte 0 -- -- 82
2019-09-08 06:00:00 9.9 9 Nordeste 13 Norte 0 -- -- 78
2019-09-08 05:00:00 10.3 9 Nordeste 18 Nordeste 0 -- -- 76
2019-09-08 04:00:00 11.4 13 Nordeste 18 Nordeste 0 -- -- 71
2019-09-08 03:00:00 12.2 12 Nordeste 18 Nordeste 0 -- -- 67
2019-09-08 02:00:00 13 12 Nordeste 17 Nordeste 0 -- -- 63
2019-09-08 01:00:00 14.2 13 Nordeste 25 Nordeste 0 -- -- 58
2019-09-08 00:00:00 15.9 18 Nordeste 27 Nordeste 0 -- -- 49
2019-09-07 23:00:00 16.6 13 Nordeste 23 Nordeste 0 -- -- 39
2019-09-07 22:00:00 18.5 17 Nordeste 23 Nordeste 0 -- -- 32
2019-09-07 21:00:00 20.3 18 Nordeste 26 Nordeste 0 -- -- 27
2019-09-07 20:00:00 23.1 19 Nordeste 28 Nordeste 0 -- -- 23
2019-09-07 19:00:00 24.1 14 Nordeste 26 Norte 0 -- -- 22
2019-09-07 18:00:00 24.1 13 Nordeste 27 Nordeste 0 -- -- 23
2019-09-07 17:00:00 23.6 14 Nordeste 28 Nordeste 0 -- -- 27
2019-09-07 16:00:00 22.9 15 Nordeste 28 Nordeste 0 -- -- 29
2019-09-07 15:00:00 21.6 18 Nordeste 33 Nordeste 0 -- -- 33
2019-09-07 14:00:00 19.9 22 Nordeste 33 Nordeste 0 -- -- 37
2019-09-07 13:00:00 17.5 19 Nordeste 31 Nordeste 0 -- -- 45
2019-09-07 12:00:00 16.1 20 Nordeste 31 Nordeste 0 -- -- 48
2019-09-07 11:00:00 13.6 20 Nordeste 29 Nordeste 0 -- -- 58
2019-09-07 10:00:00 11.7 21 Nordeste 27 Nordeste 0 -- -- 68
2019-09-07 09:00:00 9.1 10 Nordeste 17 Nordeste 0 -- -- 79
2019-09-07 08:00:00 7.5 8 Nordeste 14 Nordeste 0 -- -- 83
2019-09-07 07:00:00 7.6 9 Nordeste 14 Norte 0 -- -- 81
2019-09-07 06:00:00 8 12 Nordeste 18 Nordeste 0 -- -- 79
2019-09-07 05:00:00 8.7 13 Nordeste 20 Nordeste 0 -- -- 76
2019-09-07 04:00:00 8.9 14 Nordeste 24 Nordeste 0 -- -- 75
2019-09-07 03:00:00 9.8 20 Nordeste 29 Nordeste 0 -- -- 71
2019-09-07 02:00:00 10.5 19 Nordeste 27 Nordeste 0 -- -- 68
2019-09-07 01:00:00 11.2 17 Nordeste 26 Nordeste 0 -- -- 64
2019-09-07 00:00:00 12.4 19 Nordeste 31 Nordeste 0 -- -- 60
2019-09-06 23:00:00 14 21 Nordeste 40 Nordeste 0 -- -- 53
2019-09-06 22:00:00 16 28 Nordeste 37 Nordeste 0 -- -- 45
2019-09-06 21:00:00 17.9 24 Nordeste 37 Nordeste 0 -- -- 40
2019-09-06 20:00:00 20.4 25 Nordeste 36 Nordeste 0 -- -- 33
2019-09-06 19:00:00 21.4 27 Nordeste 38 Nordeste 0 -- -- 33
2019-09-06 18:00:00 21.9 24 Nordeste 37 Nordeste 0 -- -- 32
2019-09-06 17:00:00 22.3 24 Nordeste 35 Este 0 -- -- 32
2019-09-06 16:00:00 21.3 23 Nordeste 39 Nordeste 0 -- -- 35
2019-09-06 15:00:00 20.3 21 Nordeste 35 Nordeste 0 -- -- 37
2019-09-06 14:00:00 18.8 22 Este 36 Nordeste 0 -- -- 39
2019-09-06 13:00:00 17.3 23 Nordeste 37 Este 0 -- -- 44
2019-09-06 12:00:00 15.3 22 Nordeste 35 Nordeste 0 -- -- 53
2019-09-06 11:00:00 13.8 26 Nordeste 47 Nordeste 0 -- -- 58
2019-09-06 10:00:00 12 23 Nordeste 30 Nordeste 0 -- -- 67
2019-09-06 09:00:00 9.8 9 Nordeste 15 Nordeste 0 -- -- 78
2019-09-06 08:00:00 8.3 13 Nordeste 16 Nordeste 0 -- -- 82
2019-09-06 07:00:00 8.4 11 Nordeste 17 Nordeste 0 -- -- 83
2019-09-06 06:00:00 9.3 15 Nordeste 23 Este 0 -- -- 81
2019-09-06 05:00:00 9.7 12 Nordeste 24 Nordeste 0 -- -- 82
2019-09-06 04:00:00 10.2 16 Nordeste 24 Nordeste 0 -- -- 82
2019-09-06 03:00:00 10.7 15 Nordeste 23 Nordeste 0 -- -- 78
2019-09-06 02:00:00 11.1 12 Nordeste 24 Nordeste 0 -- -- 76
2019-09-06 01:00:00 12.2 17 Nordeste 35 Nordeste 0 -- -- 72
2019-09-06 00:00:00 13.4 19 Nordeste 34 Nordeste 0 -- -- 69
2019-09-05 23:00:00 14.3 20 Nordeste 33 Nordeste 0 -- -- 61
2019-09-05 22:00:00 15.6 26 Nordeste 37 Nordeste 0 -- -- 55
2019-09-05 21:00:00 17.1 26 Nordeste 45 Nordeste 0 -- -- 50
2019-09-05 20:00:00 20.1 31 Nordeste 42 Este 0 -- -- 40
2019-09-05 19:00:00 21.7 26 Nordeste 45 Nordeste 0 -- -- 32
2019-09-05 18:00:00 21.7 28 Nordeste 44 Nordeste 0 -- -- 32
2019-09-05 17:00:00 22.7 24 Nordeste 39 Nordeste 0 -- -- 30
2019-09-05 16:00:00 22.3 27 Nordeste 41 Nordeste 0 -- -- 28
2019-09-05 15:00:00 21.3 28 Nordeste 57 Nordeste 0 -- -- 32
2019-09-05 14:00:00 20.3 30 Nordeste 44 Nordeste 0 -- -- 33
2019-09-05 13:00:00 19.4 30 Nordeste 45 Nordeste 0 -- -- 39
2019-09-05 12:00:00 17.9 30 Nordeste 48 Nordeste 0 -- -- 49
2019-09-05 11:00:00 16.5 33 Nordeste 48 Nordeste 0 -- -- 56
2019-09-05 10:00:00 15.1 30 Nordeste 46 Nordeste 0 -- -- 66
2019-09-05 09:00:00 13.3 19 Nordeste 27 Nordeste 0 -- -- 79
2019-09-05 08:00:00 13.3 22 Nordeste 33 Nordeste 0 -- -- 79
2019-09-05 07:00:00 11.9 16 Nordeste 23 Nordeste 0 -- -- 78
2019-09-05 06:00:00 12 14 Nordeste 19 Nordeste 0 -- -- 71
2019-09-05 05:00:00 12.5 13 Nordeste 17 Nordeste 0 -- -- 67
2019-09-05 04:00:00 13.1 14 Nordeste 25 Nordeste 0 -- -- 70
2019-09-05 03:00:00 13.9 20 Nordeste 37 Nordeste 0 -- -- 69
2019-09-05 02:00:00 14.6 24 Nordeste 35 Nordeste 0 -- -- 68
2019-09-05 01:00:00 15.9 24 Nordeste 36 Nordeste 0 -- -- 65
2019-09-05 00:00:00 17.9 20 Nordeste 41 Este 0 -- -- 59
2019-09-04 23:00:00 20.5 28 Nordeste 43 Nordeste 0 -- -- 47
2019-09-04 22:00:00 23.2 28 Este 40 Este 0 -- -- 38
2019-09-04 21:00:00 25.5 8 Nordeste 17 Nordeste 0 -- -- 29
2019-09-04 20:00:00 28.7 12 Nordeste 23 Norte 0 -- -- 24
2019-09-04 19:00:00 30 10 Norte 18 Noroeste 0 -- -- 24
2019-09-04 18:00:00 30.4 12 Norte 20 Norte 0 -- -- 22
2019-09-04 17:00:00 30.1 10 Norte 17 Nordeste 0 -- -- 22
2019-09-04 16:00:00 29.2 10 Nordeste 22 Norte 0 -- -- 24
2019-09-04 15:00:00 28.8 5 Sudeste 18 Noroeste 0 -- -- 25
2019-09-04 14:00:00 27.1 7 Nordeste 15 Norte 0 -- -- 31
2019-09-04 13:00:00 25.3 5 Norte 13 Nordeste 0 -- -- 33
2019-09-04 12:00:00 22.8 4 Norte 9 Nordeste 0 -- -- 37
2019-09-04 11:00:00 20.2 5 Norte 10 Nordeste 0 -- -- 44
2019-09-04 10:00:00 17.9 7 Nordeste 10 Nordeste 0 -- -- 49
2019-09-04 09:00:00 15 2 Norte 4 Norte 0 -- -- 53
2019-09-04 08:00:00 12.3 0 Calma 4 Sudoeste 0 -- -- 63
2019-09-04 07:00:00 13.4 2 Sudoeste 3 Sudoeste 0 -- -- 59
2019-09-04 06:00:00 14.7 0 Calma 4 Norte 0 -- -- 54
2019-09-04 05:00:00 15.1 0 Calma 5 Sudoeste 0 -- -- 54
2019-09-04 04:00:00 15.3 0 Calma 4 Sudoeste 0 -- -- 52
2019-09-04 03:00:00 16.4 2 Sur 3 Sudoeste 0 -- -- 49
2019-09-04 02:00:00 17.4 2 Sur 3 Sudoeste 0 -- -- 47
2019-09-04 01:00:00 17.7 0 Calma 6 Sudoeste 0 -- -- 45
2019-09-04 00:00:00 18.4 3 Sudoeste 4 Sudoeste 0 -- -- 44
2019-09-03 23:00:00 19.4 0 Calma 3 Sur 0 -- -- 41
2019-09-03 22:00:00 21.6 2 Sudoeste 9 Nordeste 0 -- -- 36
2019-09-03 21:00:00 24.8 8 Norte 16 Norte 0 -- -- 32
2019-09-03 20:00:00 28.9 12 Noroeste 26 Noroeste 0 -- -- 27
2019-09-03 19:00:00 29.5 11 Norte 23 Norte 0 -- -- 26
2019-09-03 18:00:00 29.9 5 Noroeste 23 Noroeste 0 -- -- 27
2019-09-03 17:00:00 28.8 5 Oeste 17 Norte 0 -- -- 29
2019-09-03 16:00:00 27.1 5 Nordeste 16 Nordeste 0 -- -- 29
2019-09-03 15:00:00 25.6 8 Norte 17 Norte 0 -- -- 31
2019-09-03 14:00:00 22.9 10 Nordeste 18 Nordeste 0 -- -- 38
2019-09-03 13:00:00 20.4 12 Nordeste 18 Nordeste 0 -- -- 45
2019-09-03 12:00:00 17.8 8 Nordeste 17 Nordeste 0 -- -- 55
2019-09-03 11:00:00 15 11 Nordeste 18 Nordeste 0 -- -- 64
2019-09-03 10:00:00 13.1 12 Nordeste 17 Norte 0 -- -- 71
2019-09-03 09:00:00 11.2 10 Norte 14 Norte 0 -- -- 78
2019-09-03 08:00:00 9.8 9 Norte 12 Nordeste 0 -- -- 82
2019-09-03 07:00:00 10.2 9 Norte 12 Norte 0 -- -- 79
2019-09-03 06:00:00 10.9 9 Nordeste 15 Norte 0 -- -- 76
2019-09-03 05:00:00 11.6 12 Norte 18 Nordeste 0 -- -- 73
2019-09-03 04:00:00 12.4 12 Nordeste 17 Nordeste 0 -- -- 70
2019-09-03 03:00:00 13.4 11 Nordeste 23 Nordeste 0 -- -- 67
2019-09-03 02:00:00 14.5 14 Nordeste 24 Nordeste 0 -- -- 63
2019-09-03 01:00:00 15.8 16 Nordeste 24 Nordeste 0 -- -- 58
2019-09-03 00:00:00 17.5 16 Nordeste 23 Nordeste 0 -- -- 50
2019-09-02 23:00:00 19 16 Nordeste 26 Nordeste 0 -- -- 44
2019-09-02 22:00:00 20.8 18 Nordeste 24 Nordeste 0 -- -- 41
2019-09-02 21:00:00 23 18 Nordeste 28 Nordeste 0 -- -- 35
2019-09-02 20:00:00 25.5 22 Nordeste 28 Nordeste 0 -- -- 33
2019-09-02 19:00:00 26.5 21 Nordeste 31 Norte 0 -- -- 32
2019-09-02 18:00:00 26.7 15 Nordeste 29 Nordeste 0 -- -- 35
2019-09-02 17:00:00 26.5 18 Nordeste 35 Nordeste 0 -- -- 36
2019-09-02 16:00:00 25.6 19 Nordeste 33 Nordeste 0 -- -- 38
2019-09-02 15:00:00 24.2 22 Nordeste 41 Nordeste 0 -- -- 42
2019-09-02 14:00:00 22.7 22 Nordeste 33 Nordeste 0 -- -- 46
2019-09-02 13:00:00 20.9 24 Nordeste 35 Nordeste 0 -- -- 49
2019-09-02 12:00:00 18.6 23 Nordeste 36 Nordeste 0 -- -- 56
2019-09-02 11:00:00 16.6 24 Nordeste 39 Nordeste 0 -- -- 63
2019-09-02 10:00:00 14.8 24 Nordeste 35 Nordeste 0 -- -- 71
2019-09-02 09:00:00 13.3 21 Nordeste 28 Nordeste 0 -- -- 78
2019-09-02 08:00:00 12.2 17 Nordeste 29 Nordeste 0 -- -- 82
2019-09-02 07:00:00 12.4 21 Nordeste 26 Nordeste 0 -- -- 81
2019-09-02 06:00:00 12.7 15 Nordeste 21 Nordeste 0 -- -- 83
2019-09-02 05:00:00 13.1 14 Nordeste 24 Nordeste 0 -- -- 82
2019-09-02 04:00:00 13.7 18 Nordeste 26 Norte 0 -- -- 82
2019-09-02 03:00:00 14.8 17 Nordeste 26 Nordeste 0 -- -- 79
2019-09-02 02:00:00 15.9 19 Nordeste 33 Nordeste 0 -- -- 75
2019-09-02 01:00:00 17 20 Nordeste 42 Nordeste 0 -- -- 70
2019-09-02 00:00:00 18.3 30 Nordeste 41 Nordeste 0 -- -- 66
2019-09-01 23:00:00 20.4 31 Este 48 Este 0 -- -- 58
2019-09-01 22:00:00 22.5 27 Nordeste 41 Nordeste 0 -- -- 51
2019-09-01 21:00:00 25.2 8 Nordeste 15 Nordeste 0 -- -- 37
2019-09-01 20:00:00 27.3 11 Norte 15 Norte 0 -- -- 34
2019-09-01 19:00:00 28.9 10 Oeste 28 Noroeste 0 -- -- 32
2019-09-01 18:00:00 29.3 7 Noroeste 21 Noroeste 0 -- -- 34
2019-09-01 17:00:00 28.1 10 Noroeste 23 Noroeste 0 -- -- 39
2019-09-01 16:00:00 27.7 10 Norte 27 Nordeste 0 -- -- 41
2019-09-01 15:00:00 25.7 10 Norte 24 Norte 0 -- -- 47
2019-09-01 14:00:00 25.5 9 Norte 20 Norte 0 -- -- 48
2019-09-01 13:00:00 22.2 7 Nordeste 19 Norte 0 -- -- 61
2019-09-01 12:00:00 20.6 10 Norte 23 Norte 0 -- -- 68
2019-09-01 11:00:00 19.2 13 Nordeste 18 Norte 0 -- -- 74
2019-09-01 10:00:00 17.7 14 Nordeste 19 Nordeste 0 -- -- 79
2019-09-01 09:00:00 16.6 10 Norte 14 Norte 0 -- -- 85
2019-09-01 08:00:00 15.3 9 Norte 14 Norte 0 -- -- 84
2019-09-01 07:00:00 15.5 5 Sur 6 Sur 0 -- -- 78
2019-09-01 06:00:00 16.2 0 Calma 6 Sur 0 -- -- 73
2019-09-01 05:00:00 17 3 Nordeste 7 Norte 0 -- -- 72
2019-09-01 04:00:00 18.1 5 Norte 12 Nordeste 0 -- -- 64
2019-09-01 03:00:00 20 6 Norte 10 Norte 0 -- -- 50
2019-09-01 02:00:00 21.3 8 Norte 18 Norte 0 -- -- 46
2019-09-01 01:00:00 22.7 8 Oeste 15 Noroeste 0 -- -- 42
2019-09-01 00:00:00 23.6 9 Noroeste 15 Noroeste 0 -- -- 40
2019-08-31 23:00:00 24.7 8 Oeste 22 Noroeste 0 -- -- 39
2019-08-31 22:00:00 26.2 10 Noroeste 14 Noroeste 0 -- -- 36
2019-08-31 21:00:00 28.8 11 Oeste 26 Oeste 0 -- -- 32
2019-08-31 20:00:00 30.8 18 Oeste 27 Oeste 0 -- -- 28
2019-08-31 19:00:00 32 12 Oeste 24 Oeste 0 -- -- 26
2019-08-31 18:00:00 32.2 21 Oeste 31 Oeste 0 -- -- 25
2019-08-31 17:00:00 32.1 15 Oeste 37 Sudoeste 0 -- -- 27
2019-08-31 16:00:00 31.9 16 Noroeste 33 Oeste 0 -- -- 28
2019-08-31 15:00:00 31.4 13 Sudoeste 29 Sudoeste 0 -- -- 28
2019-08-31 14:00:00 30.4 12 Sudoeste 23 Sudoeste 0 -- -- 29
2019-08-31 13:00:00 29.4 9 Sudoeste 18 Sudoeste 0 -- -- 31
2019-08-31 12:00:00 28.3 5 Oeste 14 Oeste 0 -- -- 33
2019-08-31 11:00:00 27 4 Noroeste 7 Noroeste 0 -- -- 36
2019-08-31 10:00:00 23.7 3 Sudoeste 9 Sudoeste 0 -- -- 46
2019-08-31 09:00:00 19.5 5 Sudoeste 8 Sudoeste 0 -- -- 60
2019-08-31 08:00:00 17.7 4 Sudoeste 7 Sudoeste 0 -- -- 64
2019-08-31 07:00:00 17.9 4 Sudoeste 13 Sudoeste 0 -- -- 64
2019-08-31 06:00:00 18.6 8 Sudoeste 13 Sudoeste 0 -- -- 62
2019-08-31 05:00:00 19.6 5 Sudoeste 10 Sudoeste 0 -- -- 55
2019-08-31 04:00:00 19.8 6 Sudoeste 12 Sudoeste 0 -- -- 56
2019-08-31 03:00:00 20.3 8 Sudoeste 14 Sudoeste 0 -- -- 54
2019-08-31 02:00:00 21.3 8 Oeste 15 Norte 0 -- -- 50
2019-08-31 01:00:00 22.4 9 Sudoeste 25 Sudoeste 0 -- -- 46
2019-08-31 00:00:00 21.7 3 Sur 6 Sudoeste 0 -- -- 50
2019-08-30 23:00:00 22.1 5 Sudoeste 12 Sudoeste 0 -- -- 49
2019-08-30 22:00:00 23.3 11 Sudoeste 32 Sudoeste 0 -- -- 46
2019-08-30 21:00:00 24.2 19 Sudoeste 45 Sudoeste 0 -- -- 45
2019-08-30 20:00:00 26.1 33 Sudoeste 46 Sudoeste 0 -- -- 40
2019-08-30 19:00:00 28.4 27 Sur 46 Sudeste 0 -- -- 32
2019-08-30 18:00:00 30.9 24 Sur 35 Sur 0 -- -- 30
2019-08-30 17:00:00 32.7 8 Noroeste 24 Oeste 0 -- -- 25
2019-08-30 16:00:00 32.6 17 Oeste 27 Oeste 0 -- -- 25
2019-08-30 15:00:00 31.8 15 Sudoeste 24 Sudoeste 0 -- -- 27
2019-08-30 14:00:00 30 9 Norte 15 Norte 0 -- -- 35
2019-08-30 13:00:00 28.7 5 Noroeste 10 Norte 0 -- -- 38
2019-08-30 12:00:00 25.9 5 Nordeste 9 Norte 0 -- -- 48
2019-08-30 11:00:00 23.3 4 Norte 9 Norte 0 -- -- 58
2019-08-30 10:00:00 20.6 6 Noroeste 14 Noroeste 0 -- -- 68
2019-08-30 09:00:00 18.4 9 Norte 12 Noroeste 0 -- -- 67
2019-08-30 08:00:00 16.7 2 Sudoeste 8 Sudoeste 0 -- -- 66
2019-08-30 07:00:00 17 8 Sudoeste 10 Sudoeste 0 -- -- 64
2019-08-30 06:00:00 18 6 Sudoeste 9 Sudoeste 0 -- -- 60
2019-08-30 05:00:00 18.7 3 Sudoeste 6 Sudoeste 0 -- -- 58
2019-08-30 04:00:00 19.3 2 Sudoeste 8 Sudoeste 0 -- -- 53
2019-08-30 03:00:00 19.9 3 Sudoeste 7 Sudoeste 0 -- -- 50
2019-08-30 02:00:00 20.6 4 Sudoeste 5 Sudoeste 0 -- -- 47
2019-08-30 01:00:00 21.4 3 Sur 9 Oeste 0 -- -- 44
2019-08-30 00:00:00 22.5 3 Sudoeste 8 Oeste 0 -- -- 41
2019-08-29 23:00:00 23.2 4 Sudoeste 9 Sudoeste 0 -- -- 40
2019-08-29 22:00:00 24.7 5 Sudoeste 14 Sudoeste 0 -- -- 38
2019-08-29 21:00:00 28.2 11 Oeste 27 Oeste 0 -- -- 29
2019-08-29 20:00:00 31.2 16 Oeste 32 Oeste 0 -- -- 24
2019-08-29 19:00:00 32 18 Oeste 30 Oeste 0 -- -- 25
2019-08-29 18:00:00 32.3 20 Sudoeste 33 Sudoeste 0 -- -- 25
2019-08-29 17:00:00 32.5 18 Sudoeste 33 Sudoeste 0 -- -- 25
2019-08-29 16:00:00 31.9 17 Sudoeste 31 Sudoeste 0 -- -- 27
2019-08-29 15:00:00 31.1 18 Sudoeste 28 Sudoeste 0 -- -- 29
2019-08-29 14:00:00 30 14 Sudoeste 31 Sudoeste 0 -- -- 33
2019-08-29 13:00:00 28.8 14 Sur 24 Sudoeste 0 -- -- 35
2019-08-29 12:00:00 27.2 10 Sur 17 Sur 0 -- -- 44
2019-08-29 11:00:00 24.7 3 Este 9 Sudeste 0 -- -- 52
2019-08-29 10:00:00 21.5 2 Noroeste 10 Oeste 0 -- -- 64
2019-08-29 09:00:00 18 3 Sudoeste 10 Sudoeste 0 -- -- 78
2019-08-29 08:00:00 16.4 6 Sudoeste 10 Sudoeste 0 -- -- 80
2019-08-29 07:00:00 17.2 6 Sudoeste 9 Sudoeste 0 -- -- 76
2019-08-29 06:00:00 17.8 5 Sudoeste 11 Oeste 0 -- -- 72
2019-08-29 05:00:00 18.8 4 Oeste 9 Oeste 0 -- -- 67
2019-08-29 04:00:00 20.3 7 Noroeste 14 Noroeste 0 -- -- 61
2019-08-29 03:00:00 20.2 7 Sudoeste 14 Sudoeste 0 -- -- 62
2019-08-29 02:00:00 20.7 11 Sudoeste 15 Sudoeste 0 -- -- 60
2019-08-29 01:00:00 21.1 10 Sudoeste 12 Sudoeste 0 -- -- 60
2019-08-29 00:00:00 22.6 6 Sudoeste 13 Sudoeste 0 -- -- 55
2019-08-28 23:00:00 22.9 5 Sudoeste 12 Sur 0 -- -- 54
2019-08-28 22:00:00 25.1 0 Calma 5 Sudoeste 0 -- -- 48
2019-08-28 21:00:00 27.8 3 Oeste 16 Sur 0 -- -- 38
2019-08-28 20:00:00 29.5 7 Sudoeste 17 Sudoeste 0 -- -- 33
2019-08-28 19:00:00 29.8 9 Oeste 22 Sudoeste 0 -- -- 33
2019-08-28 18:00:00 30.1 8 Noroeste 24 Sudoeste 0 -- -- 33
2019-08-28 17:00:00 29.8 9 Oeste 21 Oeste 0 -- -- 34
2019-08-28 16:00:00 29.4 8 Sudoeste 21 Sur 0 -- -- 35
2019-08-28 15:00:00 28.2 14 Oeste 38 Sudoeste 0 -- -- 34
2019-08-28 14:00:00 27.5 11 Sudoeste 23 Sudoeste 0 -- -- 39
2019-08-28 13:00:00 26.7 9 Sur 21 Sudoeste 0 -- -- 41
2019-08-28 12:00:00 24.7 6 Sur 14 Sur 0 -- -- 49
2019-08-28 11:00:00 22.1 4 Sudoeste 9 Oeste 0 -- -- 63
2019-08-28 10:00:00 19.9 4 Oeste 7 Sudoeste 0 -- -- 71
2019-08-28 09:00:00 17.1 2 Sudoeste 6 Sudoeste 0 -- -- 81
2019-08-28 08:00:00 15.9 5 Sudoeste 8 Sudoeste 0 -- -- 82
2019-08-28 07:00:00 16.3 9 Oeste 12 Oeste 0 -- -- 80
2019-08-28 06:00:00 16.8 6 Sudoeste 11 Sudoeste 0 -- -- 77
2019-08-28 05:00:00 17.3 6 Sudoeste 8 Sudoeste 0 -- -- 73
2019-08-28 04:00:00 17.8 6 Sudoeste 10 Sudoeste 0 -- -- 70
2019-08-28 03:00:00 18.2 6 Sudoeste 8 Sudoeste 0 -- -- 69
2019-08-28 02:00:00 18.9 5 Sur 8 Sur 0 -- -- 63
2019-08-28 01:00:00 19 4 Sudoeste 6 Sudoeste 0 -- -- 66
2019-08-28 00:00:00 20 2 Sudoeste 5 Sudoeste 0 -- -- 63
2019-08-27 23:00:00 20.8 0 Calma 5 Sudoeste 0 -- -- 60
2019-08-27 22:00:00 21.9 4 Sudoeste 7 Sudoeste 0 -- -- 58
2019-08-27 21:00:00 24.3 5 Sudoeste 10 Noroeste 0 -- -- 46
2019-08-27 20:00:00 26.8 6 Noroeste 18 Norte 0 -- -- 37
2019-08-27 19:00:00 26.5 9 Noroeste 20 Norte 0 -- -- 36
2019-08-27 18:00:00 26.1 8 Norte 19 Norte 0 -- -- 38
2019-08-27 17:00:00 25.9 13 Norte 28 Norte 0 -- -- 38
2019-08-27 16:00:00 25.6 15 Norte 26 Norte 0 -- -- 41
2019-08-27 15:00:00 24.5 12 Noroeste 23 Noroeste 0 -- -- 45
2019-08-27 14:00:00 22.9 9 Noroeste 18 Norte 0 -- -- 52
2019-08-27 13:00:00 21.3 8 Norte 15 Noroeste 0 -- -- 58
2019-08-27 12:00:00 19.9 8 Noroeste 16 Noroeste 0 -- -- 68
2019-08-27 11:00:00 18.1 12 Norte 17 Noroeste 0 -- -- 79
2019-08-27 10:00:00 16.3 6 Norte 11 Noroeste 0 -- -- 87
2019-08-27 09:00:00 14.9 5 Noroeste 10 Norte 0 -- -- 92
2019-08-27 08:00:00 13.1 3 Sudoeste 6 Sudoeste 0 -- -- 92
2019-08-27 07:00:00 13.4 0 Calma 4 Oeste 0 -- -- 91
2019-08-27 06:00:00 13.8 0 Calma 8 Nordeste 0 -- -- 90
2019-08-27 05:00:00 14.3 4 Norte 12 Este 0 -- -- 88
2019-08-27 04:00:00 15 10 Este 19 Nordeste 0 -- -- 85
2019-08-27 03:00:00 16.1 8 Sudoeste 19 Oeste 0 -- -- 78
2019-08-27 02:00:00 16.2 10 Oeste 15 Oeste 0 -- -- 77
2019-08-27 01:00:00 16.5 8 Oeste 11 Oeste 0 -- -- 78
2019-08-27 00:00:00 16.9 5 Sudeste 19 Sudeste 0 -- -- 75
2019-08-26 23:00:00 17.2 15 Sur 23 Sudeste 0 -- -- 78
2019-08-26 22:00:00 17.9 5 Sudoeste 17 Sudoeste 0 -- -- 74
2019-08-26 21:00:00 17.9 11 Sudoeste 43 Oeste 0 -- -- 72
2019-08-26 20:00:00 19.1 18 Oeste 32 Sur 0 -- -- 65
2019-08-26 19:00:00 19.9 23 Sudeste 39 Sudeste 0 -- -- 60
2019-08-26 18:00:00 23.8 5 Nordeste 18 Norte 0 -- -- 52
2019-08-26 17:00:00 23.3 10 Norte 18 Noroeste 0 -- -- 57
2019-08-26 16:00:00 22.7 10 Norte 18 Norte 0 -- -- 60
2019-08-26 15:00:00 21.3 7 Sudeste 19 Nordeste 0 -- -- 65
2019-08-26 14:00:00 20.4 10 Norte 18 Norte 0 -- -- 69
2019-08-26 13:00:00 19.2 5 Sudeste 18 Sudoeste 0 -- -- 69
2019-08-26 12:00:00 18.5 11 Sudoeste 27 Sur 0 -- -- 72
2019-08-26 11:00:00 17.5 13 Sur 19 Sur 0 -- -- 78
2019-08-26 10:00:00 15.5 8 Sur 28 Sudeste 0 -- -- 83
2019-08-26 09:00:00 14.3 10 Este 27 Sudeste 0.8 -- -- 88
2019-08-26 08:00:00 13.7 10 Este 33 Este 3.2 -- -- 92
2019-08-26 07:00:00 14.6 14 Este 26 Sudeste 10.2 -- -- 93
2019-08-26 06:00:00 15.9 14 Sur 27 Sur 2.6 -- -- 93
2019-08-26 05:00:00 15.7 15 Norte 22 Norte 0 -- -- 94
2019-08-26 04:00:00 16.3 15 Noroeste 28 Norte 0 -- -- 93
2019-08-26 03:00:00 16.6 18 Este 27 Sudeste 1 -- -- 90
2019-08-26 02:00:00 16.9 23 Sudeste 34 Sudeste 0.6 -- -- 87
2019-08-26 01:00:00 16.7 11 Nordeste 25 Nordeste 1 -- -- 88
2019-08-26 00:00:00 17 21 Nordeste 41 Nordeste 0.6 -- -- 83
2019-08-25 23:00:00 17 19 Nordeste 31 Norte 0.2 -- -- 83
2019-08-25 22:00:00 17.1 8 Norte 42 Noroeste 1 -- -- 84
2019-08-25 21:00:00 18.1 29 Norte 47 Noroeste 0.6 -- -- 76
2019-08-25 20:00:00 19.7 25 Noroeste 37 Noroeste 0 -- -- 67
2019-08-25 19:00:00 22.7 18 Norte 31 Noroeste 0 -- -- 53
2019-08-25 18:00:00 22.2 10 Sudoeste 86 Sudeste 28.4 -- -- 53
2019-08-25 17:00:00 27 34 Sudeste 49 Sudeste 0 -- -- 38
2019-08-25 16:00:00 31.4 14 Noroeste 25 Noroeste 0 -- -- 28
2019-08-25 15:00:00 29.8 15 Norte 27 Norte 0 -- -- 31
2019-08-25 14:00:00 29.3 12 Noroeste 23 Noroeste 0 -- -- 34
2019-08-25 13:00:00 27.1 6 Norte 13 Norte 0 -- -- 38
2019-08-25 12:00:00 25.7 6 Norte 12 Noroeste 0 -- -- 41
2019-08-25 11:00:00 23.3 7 Norte 15 Nordeste 0 -- -- 47
2019-08-25 10:00:00 22.4 6 Norte 9 Norte 0 -- -- 48
2019-08-25 09:00:00 20.2 6 Sudoeste 10 Sudoeste 0 -- -- 52
2019-08-25 08:00:00 19.7 8 Sudoeste 18 Sur 0 -- -- 51
2019-08-25 07:00:00 20.5 5 Nordeste 16 Nordeste 0 -- -- 50
2019-08-25 06:00:00 21.3 6 Sudoeste 15 Sudoeste 0 -- -- 48
2019-08-25 05:00:00 21.7 3 Nordeste 7 Sudoeste 0 -- -- 47
2019-08-25 04:00:00 21.5 3 Noroeste 9 Noroeste 0 -- -- 45
2019-08-25 03:00:00 21.6 5 Noroeste 11 Norte 0 -- -- 43
2019-08-25 02:00:00 22.5 8 Norte 12 Norte 0 -- -- 40
2019-08-25 01:00:00 23.1 0 Calma 10 Norte 0 -- -- 37
2019-08-25 00:00:00 23 3 Noroeste 10 Noroeste 0 -- -- 32
2019-08-24 23:00:00 24.4 3 Sudoeste 8 Nordeste 0 -- -- 29
2019-08-24 22:00:00 26 8 Nordeste 10 Nordeste 0 -- -- 27
2019-08-24 21:00:00 30 3 Norte 8 Norte 0 -- -- 23
2019-08-24 20:00:00 32.3 4 Noroeste 16 Oeste 0 -- -- 21
2019-08-24 19:00:00 32.8 3 Oeste 25 Noroeste 0 -- -- 20
2019-08-24 18:00:00 33.4 12 Noroeste 26 Oeste 0 -- -- 20
2019-08-24 17:00:00 33.4 10 Oeste 28 Sudoeste 0 -- -- 20
2019-08-24 16:00:00 32.2 11 Sudoeste 23 Sudoeste 0 -- -- 22
2019-08-24 15:00:00 32.4 8 Sudoeste 22 Norte 0 -- -- 22
2019-08-24 14:00:00 31.6 6 Norte 18 Noroeste 0 -- -- 24
2019-08-24 13:00:00 29.6 7 Norte 14 Norte 0 -- -- 27
2019-08-24 12:00:00 27.8 5 Noroeste 10 Noroeste 0 -- -- 30
2019-08-24 11:00:00 25 3 Norte 8 Norte 0 -- -- 33
2019-08-24 10:00:00 22.1 4 Noroeste 8 Norte 0 -- -- 37
2019-08-24 09:00:00 19 3 Noroeste 9 Este 0 -- -- 47
2019-08-24 08:00:00 16.7 9 Sudoeste 11 Sudoeste 0 -- -- 51
2019-08-24 07:00:00 16.5 5 Oeste 8 Sudoeste 0 -- -- 42
2019-08-24 06:00:00 16.9 0 Calma 4 Sudoeste 0 -- -- 38
2019-08-24 05:00:00 17.8 4 Sudoeste 4 Sudoeste 0 -- -- 38
2019-08-24 04:00:00 20.8 4 Noroeste 19 Norte 0 -- -- 33
2019-08-24 03:00:00 20.9 11 Noroeste 18 Noroeste 0 -- -- 33
2019-08-24 02:00:00 20.4 5 Sudoeste 15 Sur 0 -- -- 32
2019-08-24 01:00:00 20.2 3 Sur 6 Sudoeste 0 -- -- 31
2019-08-24 00:00:00 20.9 2 Sudoeste 5 Sur 0 -- -- 29
2019-08-23 23:00:00 22.4 2 Sur 13 Este 0 -- -- 28
2019-08-23 22:00:00 25 12 Este 14 Nordeste 0 -- -- 26
2019-08-23 21:00:00 28.6 12 Nordeste 15 Nordeste 0 -- -- 23
2019-08-23 20:00:00 31.1 4 Este 15 Nordeste 0 -- -- 20
2019-08-23 19:00:00 32 9 Noroeste 24 Norte 0 -- -- 19
2019-08-23 18:00:00 32.6 9 Noroeste 22 Noroeste 0 -- -- 19
2019-08-23 17:00:00 31.8 5 Sur 23 Oeste 0 -- -- 19
2019-08-23 16:00:00 31.8 8 Oeste 22 Oeste 0 -- -- 19
2019-08-23 15:00:00 30.5 6 Norte 19 Nordeste 0 -- -- 20
2019-08-23 14:00:00 29.3 5 Norte 17 Norte 0 -- -- 20
2019-08-23 13:00:00 27.3 9 Norte 14 Nordeste 0 -- -- 24
2019-08-23 12:00:00 24.6 4 Noroeste 10 Norte 0 -- -- 31
2019-08-23 11:00:00 21.8 3 Este 9 Norte 0 -- -- 34
2019-08-23 10:00:00 18.2 4 Nordeste 6 Norte 0 -- -- 43
2019-08-23 09:00:00 15.2 4 Norte 8 Norte 0 -- -- 49
2019-08-23 08:00:00 12.4 4 Norte 9 Norte 0 -- -- 47
2019-08-23 07:00:00 13 5 Norte 8 Norte 0 -- -- 41
2019-08-23 06:00:00 14.1 6 Norte 12 Norte 0 -- -- 37
2019-08-23 05:00:00 14.2 9 Norte 11 Norte 0 -- -- 34
2019-08-23 04:00:00 14.2 2 Sur 3 Oeste 0 -- -- 31
2019-08-23 03:00:00 15.1 2 Sur 4 Sudoeste 0 -- -- 29
2019-08-23 02:00:00 16.8 0 Calma 7 Este 0 -- -- 30
2019-08-23 01:00:00 20 5 Sudeste 14 Este 0 -- -- 21
2019-08-23 00:00:00 18.8 8 Nordeste 16 Nordeste 0 -- -- 22
2019-08-22 23:00:00 21.8 12 Nordeste 18 Nordeste 0 -- -- 18
2019-08-22 22:00:00 22.4 11 Nordeste 13 Nordeste 0 -- -- 22
2019-08-22 21:00:00 26.6 9 Nordeste 13 Nordeste 0 -- -- 20
2019-08-22 20:00:00 28.9 10 Nordeste 23 Norte 0 -- -- 17
2019-08-22 19:00:00 30.3 9 Noroeste 21 Norte 0 -- -- 17
2019-08-22 18:00:00 29.9 10 Nordeste 26 Nordeste 0 -- -- 18
2019-08-22 17:00:00 30 11 Norte 25 Nordeste 0 -- -- 21
2019-08-22 16:00:00 28.8 8 Norte 27 Este 0 -- -- 25
2019-08-22 15:00:00 28.5 13 Nordeste 30 Nordeste 0 -- -- 27
2019-08-22 14:00:00 26.8 12 Nordeste 24 Este 0 -- -- 32
2019-08-22 13:00:00 24.6 14 Nordeste 29 Nordeste 0 -- -- 45
2019-08-22 12:00:00 21.6 13 Nordeste 21 Nordeste 0 -- -- 56
2019-08-22 11:00:00 18.9 11 Norte 17 Nordeste 0 -- -- 64
2019-08-22 10:00:00 16.5 11 Nordeste 17 Nordeste 0 -- -- 71
2019-08-22 09:00:00 14.2 8 Norte 12 Norte 0 -- -- 81
2019-08-22 08:00:00 12.3 6 Norte 10 Norte 0 -- -- 87
2019-08-22 07:00:00 12.8 9 Norte 14 Norte 0 -- -- 84
2019-08-22 06:00:00 14.2 9 Norte 14 Norte 0 -- -- 78
2019-08-22 05:00:00 15.3 10 Norte 15 Norte 0 -- -- 73
2019-08-22 04:00:00 16.2 11 Norte 14 Nordeste 0 -- -- 68
2019-08-22 03:00:00 17 11 Nordeste 13 Nordeste 0 -- -- 60
2019-08-22 02:00:00 18.5 8 Nordeste 18 Este 0 -- -- 50
2019-08-22 01:00:00 21.2 14 Este 26 Este 0 -- -- 44
2019-08-22 00:00:00 22.2 19 Este 26 Este 0 -- -- 43
2019-08-21 23:00:00 21.5 3 Oeste 8 Nordeste 0 -- -- 43
2019-08-21 22:00:00 23.6 4 Norte 9 Noroeste 0 -- -- 38
2019-08-21 21:00:00 27.1 8 Noroeste 15 Noroeste 0 -- -- 33
2019-08-21 20:00:00 29.1 8 Noroeste 16 Noroeste 0 -- -- 30
2019-08-21 19:00:00 29.3 9 Noroeste 19 Noroeste 0 -- -- 31
2019-08-21 18:00:00 29.4 8 Norte 22 Norte 0 -- -- 30
2019-08-21 17:00:00 28.9 12 Noroeste 25 Noroeste 0 -- -- 33
2019-08-21 16:00:00 28.2 10 Noroeste 18 Noroeste 0 -- -- 38
2019-08-21 15:00:00 25.4 5 Nordeste 24 Nordeste 0 -- -- 47
2019-08-21 14:00:00 23.4 9 Nordeste 16 Norte 0 -- -- 52
2019-08-21 13:00:00 21.1 9 Norte 17 Norte 0 -- -- 57
2019-08-21 12:00:00 18.8 10 Norte 19 Norte 0 -- -- 61
2019-08-21 11:00:00 16.8 11 Nordeste 18 Norte 0 -- -- 66
2019-08-21 10:00:00 15.2 10 Norte 18 Norte 0 -- -- 70
2019-08-21 09:00:00 13.6 9 Norte 14 Norte 0 -- -- 77
2019-08-21 08:00:00 12.3 8 Norte 13 Norte 0 -- -- 79
2019-08-21 07:00:00 12.7 4 Norte 11 Norte 0 -- -- 76
2019-08-21 06:00:00 13.6 8 Norte 13 Norte 0 -- -- 74
2019-08-21 05:00:00 13.9 9 Norte 14 Norte 0 -- -- 73
2019-08-21 04:00:00 13.9 11 Nordeste 15 Norte 0 -- -- 72
2019-08-21 03:00:00 14.6 10 Nordeste 14 Nordeste 0 -- -- 68
2019-08-21 02:00:00 15.6 11 Nordeste 18 Nordeste 0 -- -- 64
2019-08-21 01:00:00 16.6 14 Nordeste 27 Nordeste 0 -- -- 59
2019-08-21 00:00:00 17.5 15 Nordeste 24 Nordeste 0 -- -- 54